RYR173 EGBB-EGPH
Flight info
| Callsign | RYR173 |
|---|---|
| Flight time | 1h 0m |
| Altitude | 26000 |
| Route | LUVUM DCT TNT N57 POL UN601 RIBEL DCT INPIP |
| Aircraft | B38M/M-SDE1FGHILORVWXY/HB1 |
Departure
| Time | 2026-04-21 10:44 |
|---|---|
| Airport | Birmingham Airport (EGBB) |
Arrival
| Time | 2026-04-21 11:44 |
|---|---|
| Airport | Edinburgh Airport (EGPH) |
| Time | Latitude | Longitude | Altitude | Speed | Heading |
|---|---|---|---|---|---|
| 2026-04-21 10:30 | 52.45393 | -1.73987 | 329 ft | 0 kts | 26° |
| 2026-04-21 10:38 | 52.45377 | -1.74000 | 330 ft | 3 kts | 26° |
| 2026-04-21 10:38 | 52.45361 | -1.74013 | 332 ft | 2 kts | 26° |
| 2026-04-21 10:38 | 52.45346 | -1.74025 | 329 ft | 2 kts | 26° |
| 2026-04-21 10:38 | 52.45331 | -1.74036 | 331 ft | 2 kts | 358° |
| 2026-04-21 10:39 | 52.45316 | -1.74027 | 329 ft | 2 kts | 301° |
| 2026-04-21 10:39 | 52.45316 | -1.74026 | 329 ft | 0 kts | 301° |
| 2026-04-21 10:40 | 52.45318 | -1.74035 | 329 ft | 3 kts | 295° |
| 2026-04-21 10:40 | 52.45339 | -1.74134 | 332 ft | 15 kts | 290° |
| 2026-04-21 10:40 | 52.45399 | -1.74339 | 334 ft | 24 kts | 297° |
| 2026-04-21 10:40 | 52.45471 | -1.74554 | 330 ft | 22 kts | 308° |
| 2026-04-21 10:41 | 52.45596 | -1.74713 | 329 ft | 24 kts | 326° |
| 2026-04-21 10:41 | 52.45737 | -1.74869 | 329 ft | 25 kts | 326° |
| 2026-04-21 10:41 | 52.45891 | -1.75036 | 328 ft | 28 kts | 326° |
| 2026-04-21 10:41 | 52.46059 | -1.75224 | 323 ft | 31 kts | 325° |
| 2026-04-21 10:42 | 52.46248 | -1.75439 | 314 ft | 34 kts | 326° |
| 2026-04-21 10:42 | 52.46444 | -1.75639 | 318 ft | 29 kts | 327° |
| 2026-04-21 10:42 | 52.46592 | -1.75813 | 327 ft | 14 kts | 321° |
| 2026-04-21 10:42 | 52.46625 | -1.75926 | 332 ft | 12 kts | 261° |
| 2026-04-21 10:43 | 52.46572 | -1.76052 | 329 ft | 13 kts | 220° |
| 2026-04-21 10:43 | 52.46510 | -1.76059 | 332 ft | 6 kts | 147° |
| 2026-04-21 10:43 | 52.46477 | -1.76021 | 326 ft | 15 kts | 145° |
| 2026-04-21 10:43 | 52.46146 | -1.75648 | 317 ft | 99 kts | 146° |
| 2026-04-21 10:44 | 52.45394 | -1.74772 | 370 ft | 161 kts | 142° |
| 2026-04-21 10:44 | 52.44353 | -1.73708 | 883 ft | 189 kts | 144° |
| 2026-04-21 10:44 | 52.43152 | -1.72599 | 1772 ft | 206 kts | 145° |
| 2026-04-21 10:44 | 52.41922 | -1.71431 | 2758 ft | 200 kts | 137° |
| 2026-04-21 10:45 | 52.41035 | -1.69704 | 3608 ft | 204 kts | 110° |
| 2026-04-21 10:45 | 52.40964 | -1.69443 | 3693 ft | 205 kts | 106° |
| 2026-04-21 10:45 | 52.40767 | -1.67966 | 4031 ft | 220 kts | 90° |
| 2026-04-21 10:45 | 52.41013 | -1.65473 | 5023 ft | 221 kts | 69° |
| 2026-04-21 10:46 | 52.41550 | -1.63226 | 5624 ft | 207 kts | 74° |
| 2026-04-21 10:46 | 52.42213 | -1.61168 | 5682 ft | 207 kts | 47° |
| 2026-04-21 10:46 | 52.43477 | -1.60010 | 5799 ft | 215 kts | 24° |
| 2026-04-21 10:46 | 52.44880 | -1.59113 | 5956 ft | 223 kts | 25° |
| 2026-04-21 10:47 | 52.46489 | -1.58881 | 5917 ft | 247 kts | 353° |
| 2026-04-21 10:47 | 52.48237 | -1.59459 | 5934 ft | 263 kts | 356° |
| 2026-04-21 10:47 | 52.50063 | -1.59920 | 5983 ft | 269 kts | 355° |
| 2026-04-21 10:47 | 52.51876 | -1.60656 | 5956 ft | 275 kts | 342° |
| 2026-04-21 10:48 | 52.53640 | -1.61902 | 6015 ft | 277 kts | 341° |
| 2026-04-21 10:48 | 52.55405 | -1.63160 | 6000 ft | 276 kts | 341° |
| 2026-04-21 10:48 | 52.57167 | -1.64420 | 5996 ft | 276 kts | 341° |
| 2026-04-21 10:48 | 52.58926 | -1.65681 | 5984 ft | 276 kts | 341° |
| 2026-04-21 10:49 | 52.60681 | -1.66943 | 6008 ft | 275 kts | 341° |
| 2026-04-21 10:49 | 52.62434 | -1.68202 | 6001 ft | 276 kts | 341° |
| 2026-04-21 10:49 | 52.64194 | -1.69470 | 5946 ft | 277 kts | 341° |
| 2026-04-21 10:49 | 52.65963 | -1.70744 | 5955 ft | 278 kts | 341° |
| 2026-04-21 10:50 | 52.67731 | -1.72020 | 5950 ft | 277 kts | 341° |
| 2026-04-21 10:50 | 52.69494 | -1.73292 | 5951 ft | 277 kts | 341° |
| 2026-04-21 10:50 | 52.71302 | -1.74302 | 6104 ft | 272 kts | 360° |
| 2026-04-21 10:50 | 52.73152 | -1.74110 | 7008 ft | 266 kts | 11° |
| 2026-04-21 10:51 | 52.75020 | -1.73770 | 7979 ft | 274 kts | 11° |
| 2026-04-21 10:51 | 52.76928 | -1.73392 | 8964 ft | 278 kts | 12° |
| 2026-04-21 10:51 | 52.78864 | -1.72989 | 9949 ft | 283 kts | 12° |
| 2026-04-21 10:51 | 52.80834 | -1.72563 | 10826 ft | 291 kts | 12° |
| 2026-04-21 10:52 | 52.82902 | -1.72104 | 11322 ft | 310 kts | 11° |
| 2026-04-21 10:52 | 52.85111 | -1.71607 | 11738 ft | 331 kts | 11° |
| 2026-04-21 10:52 | 52.87464 | -1.71075 | 12105 ft | 351 kts | 11° |
| 2026-04-21 10:52 | 52.89951 | -1.70513 | 12417 ft | 371 kts | 11° |
| 2026-04-21 10:53 | 52.92559 | -1.69922 | 12828 ft | 385 kts | 11° |
| 2026-04-21 10:53 | 52.95235 | -1.69314 | 13540 ft | 390 kts | 11° |
| 2026-04-21 10:53 | 52.97936 | -1.68700 | 14269 ft | 395 kts | 11° |
| 2026-04-21 10:53 | 53.00675 | -1.68075 | 14889 ft | 399 kts | 11° |
| 2026-04-21 10:54 | 53.03441 | -1.67469 | 15537 ft | 404 kts | 7° |
| 2026-04-21 10:54 | 53.06268 | -1.67800 | 16171 ft | 414 kts | 349° |
| 2026-04-21 10:54 | 53.09028 | -1.69316 | 16773 ft | 421 kts | 342° |
| 2026-04-21 10:54 | 53.11792 | -1.70980 | 17397 ft | 424 kts | 342° |
| 2026-04-21 10:55 | 53.14573 | -1.72682 | 18071 ft | 427 kts | 342° |
| 2026-04-21 10:55 | 53.17377 | -1.74416 | 18572 ft | 433 kts | 342° |
| 2026-04-21 10:55 | 53.20224 | -1.76187 | 19046 ft | 438 kts | 342° |
| 2026-04-21 10:55 | 53.23078 | -1.77964 | 19668 ft | 438 kts | 341° |
| 2026-04-21 10:56 | 53.25945 | -1.79752 | 20161 ft | 442 kts | 342° |
| 2026-04-21 10:56 | 53.28838 | -1.81556 | 20659 ft | 445 kts | 342° |
| 2026-04-21 10:56 | 53.31755 | -1.83379 | 21135 ft | 448 kts | 342° |
| 2026-04-21 10:56 | 53.34681 | -1.85213 | 21721 ft | 449 kts | 342° |
| 2026-04-21 10:57 | 53.37621 | -1.87055 | 22143 ft | 455 kts | 342° |
| 2026-04-21 10:57 | 53.40605 | -1.88929 | 22518 ft | 460 kts | 341° |
| 2026-04-21 10:57 | 53.43599 | -1.90813 | 23101 ft | 460 kts | 341° |
| 2026-04-21 10:57 | 53.46605 | -1.92706 | 23598 ft | 463 kts | 341° |
| 2026-04-21 10:58 | 53.49641 | -1.94619 | 23925 ft | 469 kts | 342° |
| 2026-04-21 10:58 | 53.52709 | -1.96559 | 24300 ft | 471 kts | 342° |
| 2026-04-21 10:58 | 53.55775 | -1.98499 | 24815 ft | 470 kts | 341° |
| 2026-04-21 10:58 | 53.58839 | -2.00440 | 25260 ft | 471 kts | 341° |
| 2026-04-21 10:59 | 53.61908 | -2.02387 | 25675 ft | 472 kts | 340° |
| 2026-04-21 10:59 | 53.64980 | -2.04340 | 26173 ft | 471 kts | 340° |
| 2026-04-21 10:59 | 53.68059 | -2.06299 | 26413 ft | 476 kts | 339° |
| 2026-04-21 10:59 | 53.71151 | -2.08269 | 26422 ft | 473 kts | 339° |
| 2026-04-21 11:00 | 53.74213 | -2.10250 | 26419 ft | 471 kts | 338° |
| 2026-04-21 11:00 | 53.77270 | -2.12329 | 26426 ft | 476 kts | 338° |
| 2026-04-21 11:00 | 53.80306 | -2.14385 | 26430 ft | 477 kts | 338° |
| 2026-04-21 11:00 | 53.83386 | -2.16473 | 26438 ft | 477 kts | 338° |
| 2026-04-21 11:01 | 53.86468 | -2.18568 | 26435 ft | 477 kts | 338° |
| 2026-04-21 11:01 | 53.89541 | -2.20673 | 26436 ft | 476 kts | 338° |
| 2026-04-21 11:01 | 53.92611 | -2.22778 | 26441 ft | 476 kts | 338° |
| 2026-04-21 11:02 | 53.98763 | -2.27005 | 26432 ft | 476 kts | 338° |
| 2026-04-21 11:02 | 54.01842 | -2.29123 | 26439 ft | 479 kts | 338° |
| 2026-04-21 11:02 | 54.04940 | -2.31261 | 26441 ft | 481 kts | 339° |
| 2026-04-21 11:02 | 54.08039 | -2.33402 | 26442 ft | 481 kts | 338° |
| 2026-04-21 11:03 | 54.11129 | -2.35540 | 26438 ft | 479 kts | 339° |
| 2026-04-21 11:03 | 54.14221 | -2.37683 | 26446 ft | 480 kts | 339° |
| 2026-04-21 11:03 | 54.17318 | -2.39833 | 26449 ft | 481 kts | 338° |
| 2026-04-21 11:03 | 54.20415 | -2.41986 | 26444 ft | 480 kts | 338° |
| 2026-04-21 11:04 | 54.23507 | -2.44139 | 26451 ft | 480 kts | 339° |
| 2026-04-21 11:04 | 54.26616 | -2.46305 | 26444 ft | 486 kts | 340° |
| 2026-04-21 11:04 | 54.29755 | -2.48500 | 26449 ft | 487 kts | 339° |
| 2026-04-21 11:04 | 54.32880 | -2.50688 | 26458 ft | 484 kts | 339° |
| 2026-04-21 11:05 | 54.36002 | -2.52875 | 26463 ft | 485 kts | 340° |
| 2026-04-21 11:05 | 54.39132 | -2.55071 | 26460 ft | 487 kts | 339° |
| 2026-04-21 11:05 | 54.42260 | -2.57273 | 26461 ft | 485 kts | 339° |
| 2026-04-21 11:05 | 54.45380 | -2.59472 | 26457 ft | 484 kts | 339° |
| 2026-04-21 11:06 | 54.48499 | -2.61671 | 26456 ft | 487 kts | 340° |
| 2026-04-21 11:06 | 54.51645 | -2.63895 | 26460 ft | 489 kts | 340° |
| 2026-04-21 11:06 | 54.54782 | -2.66116 | 26469 ft | 487 kts | 339° |
| 2026-04-21 11:06 | 54.57918 | -2.68340 | 26467 ft | 488 kts | 340° |
| 2026-04-21 11:07 | 54.61067 | -2.70576 | 26471 ft | 491 kts | 339° |
| 2026-04-21 11:07 | 54.62290 | -2.71447 | 26485 ft | 492 kts | 339° |
| 2026-04-21 11:24 | 54.63419 | -2.72250 | 26476 ft | 491 kts | 339° |
| 2026-04-21 11:25 | 54.66560 | -2.74488 | 26480 ft | 487 kts | 339° |
| 2026-04-21 11:25 | 54.69700 | -2.76727 | 26477 ft | 489 kts | 339° |
| 2026-04-21 11:25 | 54.72850 | -2.78979 | 26476 ft | 491 kts | 339° |
| 2026-04-21 11:25 | 54.75995 | -2.81232 | 26485 ft | 489 kts | 339° |
| 2026-04-21 11:26 | 54.79135 | -2.83483 | 26480 ft | 488 kts | 339° |
| 2026-04-21 11:26 | 54.81257 | -2.85006 | 26480 ft | 489 kts | 340° |
| 2026-04-21 11:26 | 54.84398 | -2.87266 | 26503 ft | 490 kts | 340° |
| 2026-04-21 11:26 | 54.87518 | -2.89514 | 26211 ft | 496 kts | 339° |
| 2026-04-21 11:27 | 54.90676 | -2.91795 | 25642 ft | 486 kts | 340° |
| 2026-04-21 11:27 | 54.93805 | -2.94057 | 25137 ft | 477 kts | 340° |
| 2026-04-21 11:27 | 54.96801 | -2.96227 | 24646 ft | 469 kts | 340° |
| 2026-04-21 11:27 | 54.99791 | -2.98395 | 24117 ft | 462 kts | 340° |
| 2026-04-21 11:28 | 55.02743 | -3.00539 | 23483 ft | 457 kts | 340° |
| 2026-04-21 11:28 | 55.05660 | -3.02662 | 22849 ft | 452 kts | 340° |
| 2026-04-21 11:28 | 55.08551 | -3.04769 | 22228 ft | 448 kts | 340° |
| 2026-04-21 11:28 | 55.11413 | -3.06858 | 21618 ft | 444 kts | 340° |
| 2026-04-21 11:29 | 55.14249 | -3.08931 | 21029 ft | 440 kts | 340° |
| 2026-04-21 11:29 | 55.17062 | -3.10992 | 20435 ft | 437 kts | 340° |
| 2026-04-21 11:29 | 55.19855 | -3.13040 | 19864 ft | 434 kts | 340° |
| 2026-04-21 11:29 | 55.22627 | -3.15076 | 19289 ft | 431 kts | 340° |
| 2026-04-21 11:30 | 55.25383 | -3.17102 | 18719 ft | 428 kts | 340° |
| 2026-04-21 11:30 | 55.28123 | -3.19108 | 18090 ft | 425 kts | 342° |
| 2026-04-21 11:30 | 55.30966 | -3.20197 | 17464 ft | 414 kts | 1° |
| 2026-04-21 11:30 | 55.33802 | -3.19848 | 16881 ft | 406 kts | 9° |
| 2026-04-21 11:31 | 55.36610 | -3.19385 | 16311 ft | 404 kts | 9° |
| 2026-04-21 11:31 | 55.39401 | -3.18945 | 15742 ft | 402 kts | 9° |
| 2026-04-21 11:31 | 55.42180 | -3.18509 | 15168 ft | 400 kts | 8° |
| 2026-04-21 11:31 | 55.44943 | -3.18077 | 14631 ft | 398 kts | 8° |
| 2026-04-21 11:32 | 55.47690 | -3.17645 | 14054 ft | 395 kts | 8° |
| 2026-04-21 11:32 | 55.50420 | -3.17218 | 13425 ft | 391 kts | 8° |
| 2026-04-21 11:32 | 55.53079 | -3.16800 | 12838 ft | 377 kts | 8° |
| 2026-04-21 11:32 | 55.55648 | -3.16395 | 12263 ft | 364 kts | 9° |
| 2026-04-21 11:33 | 55.58132 | -3.16004 | 11696 ft | 353 kts | 9° |
| 2026-04-21 11:33 | 55.60548 | -3.15624 | 11101 ft | 343 kts | 8° |
| 2026-04-21 11:33 | 55.62891 | -3.15253 | 10575 ft | 333 kts | 9° |
| 2026-04-21 11:33 | 55.65175 | -3.14891 | 9999 ft | 326 kts | 9° |
| 2026-04-21 11:34 | 55.67418 | -3.14536 | 9408 ft | 320 kts | 9° |
| 2026-04-21 11:34 | 55.69626 | -3.14731 | 8771 ft | 322 kts | 346° |
| 2026-04-21 11:34 | 55.71545 | -3.16702 | 8195 ft | 323 kts | 316° |
| 2026-04-21 11:34 | 55.72685 | -3.20043 | 7723 ft | 316 kts | 285° |
| 2026-04-21 11:35 | 55.72928 | -3.23875 | 7426 ft | 311 kts | 270° |
| 2026-04-21 11:35 | 55.72959 | -3.27618 | 7219 ft | 305 kts | 269° |
| 2026-04-21 11:35 | 55.72985 | -3.31342 | 7004 ft | 299 kts | 269° |
| 2026-04-21 11:35 | 55.73006 | -3.34999 | 6775 ft | 294 kts | 269° |
| 2026-04-21 11:36 | 55.73027 | -3.38586 | 6554 ft | 289 kts | 269° |
| 2026-04-21 11:36 | 55.73059 | -3.42119 | 6331 ft | 284 kts | 269° |
| 2026-04-21 11:36 | 55.73088 | -3.45598 | 6094 ft | 280 kts | 269° |
| 2026-04-21 11:36 | 55.73119 | -3.49021 | 5869 ft | 275 kts | 269° |
| 2026-04-21 11:37 | 55.73146 | -3.52388 | 5634 ft | 271 kts | 269° |
| 2026-04-21 11:37 | 55.73168 | -3.55708 | 5415 ft | 267 kts | 269° |
| 2026-04-21 11:37 | 55.73197 | -3.58972 | 5172 ft | 264 kts | 273° |
| 2026-04-21 11:37 | 55.73653 | -3.62077 | 4890 ft | 258 kts | 298° |
| 2026-04-21 11:38 | 55.74626 | -3.64694 | 4671 ft | 251 kts | 314° |
| 2026-04-21 11:38 | 55.75853 | -3.66827 | 4441 ft | 244 kts | 326° |
| 2026-04-21 11:38 | 55.77244 | -3.68456 | 4223 ft | 237 kts | 338° |
| 2026-04-21 11:38 | 55.78752 | -3.69535 | 4039 ft | 230 kts | 350° |
| 2026-04-21 11:39 | 55.80277 | -3.70070 | 4002 ft | 215 kts | 0° |
| 2026-04-21 11:39 | 55.81729 | -3.70065 | 4037 ft | 204 kts | 13° |
| 2026-04-21 11:39 | 55.83090 | -3.69501 | 4030 ft | 199 kts | 27° |
| 2026-04-21 11:39 | 55.84187 | -3.68125 | 3990 ft | 192 kts | 50° |
| 2026-04-21 11:40 | 55.85022 | -3.66293 | 3799 ft | 190 kts | 57° |
| 2026-04-21 11:40 | 55.85752 | -3.64345 | 3546 ft | 189 kts | 59° |
| 2026-04-21 11:40 | 55.86449 | -3.62367 | 3282 ft | 189 kts | 60° |
| 2026-04-21 11:40 | 55.87132 | -3.60377 | 3038 ft | 188 kts | 60° |
| 2026-04-21 11:41 | 55.87796 | -3.58436 | 2828 ft | 183 kts | 61° |
| 2026-04-21 11:41 | 55.88444 | -3.56538 | 2548 ft | 175 kts | 60° |
| 2026-04-21 11:41 | 55.89060 | -3.54732 | 2309 ft | 166 kts | 60° |
| 2026-04-21 11:41 | 55.89645 | -3.53007 | 2074 ft | 159 kts | 61° |
| 2026-04-21 11:42 | 55.90186 | -3.51419 | 1866 ft | 140 kts | 61° |
| 2026-04-21 11:42 | 55.90673 | -3.49984 | 1685 ft | 134 kts | 60° |
| 2026-04-21 11:42 | 55.91154 | -3.48570 | 1483 ft | 133 kts | 61° |
| 2026-04-21 11:42 | 55.91644 | -3.47140 | 1354 ft | 135 kts | 61° |
| 2026-04-21 11:43 | 55.92149 | -3.45722 | 1201 ft | 136 kts | 61° |
| 2026-04-21 11:43 | 55.92645 | -3.44274 | 974 ft | 135 kts | 61° |
| 2026-04-21 11:43 | 55.93103 | -3.42885 | 662 ft | 129 kts | 64° |
| 2026-04-21 11:43 | 55.93551 | -3.41504 | 476 ft | 131 kts | 59° |
| 2026-04-21 11:44 | 55.94036 | -3.40098 | 314 ft | 134 kts | 59° |
| 2026-04-21 11:44 | 55.94512 | -3.38686 | 155 ft | 131 kts | 59° |
| 2026-04-21 11:44 | 55.94937 | -3.37441 | 114 ft | 97 kts | 58° |
| 2026-04-21 11:44 | 55.95164 | -3.36765 | 113 ft | 38 kts | 59° |
| 2026-04-21 11:45 | 55.95244 | -3.36535 | 113 ft | 14 kts | 59° |
| 2026-04-21 11:45 | 55.95234 | -3.36397 | 114 ft | 10 kts | 142° |
| 2026-04-21 11:45 | 55.95180 | -3.36335 | 117 ft | 9 kts | 148° |
| 2026-04-21 11:45 | 55.95102 | -3.36366 | 117 ft | 16 kts | 221° |
| 2026-04-21 11:46 | 55.95023 | -3.36351 | 116 ft | 13 kts | 148° |
| 2026-04-21 11:46 | 55.94968 | -3.36291 | 117 ft | 0 kts | 149° |